createdAt,value
2022-12-18T00:00:34.351Z,99.99
2022-12-18T00:01:34.467Z,99.99
2022-12-18T00:02:34.405Z,99.99
2022-12-18T00:03:34.429Z,99.99
2022-12-18T00:04:34.312Z,99.81
2022-12-18T00:05:34.308Z,99.71
2022-12-18T00:06:34.288Z,99.49
2022-12-18T00:07:34.312Z,99.43
2022-12-18T00:08:34.269Z,99.22
2022-12-18T00:09:40.041Z,99.11
2022-12-18T00:10:35.247Z,99.22
2022-12-18T00:11:34.250Z,99.22
2022-12-18T00:12:34.260Z,99.22
2022-12-18T00:13:34.219Z,99.11
2022-12-18T00:14:34.217Z,99.11
2022-12-18T00:15:34.200Z,99.05
2022-12-18T00:16:34.240Z,98.94
2022-12-18T00:17:34.197Z,98.94
2022-12-18T00:18:34.167Z,99.05
2022-12-18T00:19:34.158Z,98.94
2022-12-18T00:20:34.147Z,99.05
2022-12-18T00:21:34.143Z,99.05
2022-12-18T00:22:34.148Z,99.15
2022-12-18T00:23:34.137Z,99.26
2022-12-18T00:24:34.107Z,99.26
2022-12-18T00:25:34.103Z,99.26
2022-12-18T00:26:34.090Z,99.37
2022-12-18T00:27:34.100Z,99.48
2022-12-18T00:28:34.067Z,99.37
2022-12-18T00:29:34.090Z,99.37
2022-12-18T00:30:34.045Z,99.37
2022-12-18T00:31:34.088Z,99.30
2022-12-18T00:32:34.054Z,99.20
2022-12-18T00:33:34.024Z,99.20
2022-12-18T00:34:34.006Z,99.30
2022-12-18T00:35:34.003Z,99.30
2022-12-18T00:36:34.007Z,99.30
2022-12-18T00:37:33.973Z,99.30
2022-12-18T00:38:33.987Z,99.30
2022-12-18T00:39:33.956Z,99.41
2022-12-18T00:40:33.944Z,99.41
2022-12-18T00:41:33.952Z,99.37
2022-12-18T00:42:33.924Z,99.37
2022-12-18T00:43:33.943Z,99.37
2022-12-18T00:44:33.902Z,99.15
2022-12-18T00:45:33.922Z,99.05
2022-12-18T00:46:33.882Z,98.94
2022-12-18T00:47:33.873Z,98.66
2022-12-18T00:48:33.862Z,98.56
2022-12-18T00:49:33.873Z,98.56
2022-12-18T00:50:33.865Z,98.66
2022-12-18T00:51:33.840Z,98.66
2022-12-18T00:52:33.824Z,98.73
2022-12-18T00:53:33.819Z,98.73
2022-12-18T00:54:33.805Z,98.73
2022-12-18T00:55:33.822Z,98.73
2022-12-18T00:56:33.784Z,98.62
2022-12-18T00:57:33.771Z,98.62
2022-12-18T00:58:33.761Z,98.52
2022-12-18T00:59:33.783Z,98.30
2022-12-18T01:00:33.829Z,98.19
2022-12-18T01:01:33.896Z,97.98
2022-12-18T01:02:33.903Z,97.55
2022-12-18T01:03:33.720Z,97.39
2022-12-18T01:04:33.702Z,97.28
2022-12-18T01:05:33.723Z,97.06
2022-12-18T01:06:33.690Z,96.89
2022-12-18T01:07:33.673Z,97.00
2022-12-18T01:08:33.661Z,97.00
2022-12-18T01:09:33.651Z,97.11
2022-12-18T01:10:33.659Z,97.32
2022-12-18T01:11:33.631Z,97.43
2022-12-18T01:12:33.650Z,97.71
2022-12-18T01:13:33.617Z,97.71
2022-12-18T01:14:33.600Z,97.81
2022-12-18T01:15:33.592Z,97.81
2022-12-18T01:16:33.641Z,97.81
2022-12-18T01:17:33.596Z,97.81
2022-12-18T01:18:33.559Z,97.71
2022-12-18T01:19:33.550Z,97.71
2022-12-18T01:20:33.537Z,97.60
2022-12-18T01:21:33.530Z,97.43
2022-12-18T01:22:33.518Z,97.43
2022-12-18T01:23:33.540Z,97.32
2022-12-18T01:24:33.497Z,97.43
2022-12-18T01:25:33.489Z,97.53
2022-12-18T01:26:33.477Z,97.43
2022-12-18T01:27:33.481Z,97.32
2022-12-18T01:28:33.498Z,97.22
2022-12-18T01:29:33.468Z,97.00
2022-12-18T01:30:33.438Z,96.89
2022-12-18T01:31:33.493Z,96.79
2022-12-18T01:32:33.418Z,96.79
2022-12-18T01:33:33.418Z,96.89
2022-12-18T01:34:33.424Z,96.89
2022-12-18T01:35:33.398Z,96.79
2022-12-18T01:36:33.379Z,96.79
2022-12-18T01:37:33.367Z,96.51
2022-12-18T01:38:33.365Z,96.41
2022-12-18T01:39:33.368Z,96.41
2022-12-18T01:40:33.344Z,96.41
2022-12-18T01:41:33.347Z,96.56
2022-12-18T01:42:33.336Z,96.56
2022-12-18T01:43:33.307Z,96.66
2022-12-18T01:44:33.297Z,96.56
2022-12-18T01:45:33.399Z,96.66
2022-12-18T01:46:33.316Z,96.77
2022-12-18T01:47:33.264Z,96.77
2022-12-18T01:48:33.256Z,96.88
2022-12-18T01:49:33.245Z,96.77
2022-12-18T01:50:33.267Z,96.66
2022-12-18T01:51:33.224Z,96.77
2022-12-18T01:52:33.242Z,96.77
2022-12-18T01:53:33.207Z,96.70
2022-12-18T01:54:33.194Z,96.70
2022-12-18T01:55:33.186Z,96.81
2022-12-18T01:56:33.173Z,97.03
2022-12-18T01:57:33.183Z,97.03
2022-12-18T01:58:33.163Z,97.03
2022-12-18T01:59:33.141Z,97.03
2022-12-18T02:00:33.133Z,97.13
2022-12-18T02:01:33.240Z,97.24
2022-12-18T02:02:33.185Z,97.24
2022-12-18T02:03:33.121Z,97.24
2022-12-18T02:04:33.092Z,97.39
2022-12-18T02:05:33.083Z,97.39
2022-12-18T02:06:33.072Z,97.50
2022-12-18T02:07:33.069Z,97.60
2022-12-18T02:08:33.081Z,97.71
2022-12-18T02:09:33.042Z,97.81
2022-12-18T02:10:33.040Z,97.88
2022-12-18T02:11:33.021Z,97.88
2022-12-18T02:12:33.011Z,97.88
2022-12-18T02:13:33.023Z,97.88
2022-12-18T02:14:32.990Z,97.81
2022-12-18T02:15:32.983Z,97.92
2022-12-18T02:16:33.034Z,97.88
2022-12-18T02:17:32.964Z,97.99
2022-12-18T02:18:32.981Z,97.88
2022-12-18T02:19:33.960Z,97.81
2022-12-18T02:20:32.931Z,97.81
2022-12-18T02:21:32.922Z,97.77
2022-12-18T02:22:32.911Z,97.99
2022-12-18T02:23:32.898Z,97.88
2022-12-18T02:24:32.890Z,97.88
2022-12-18T02:25:32.899Z,97.99
2022-12-18T02:26:32.869Z,97.88
2022-12-18T02:27:32.858Z,97.77
2022-12-18T02:28:32.848Z,97.77
2022-12-18T02:29:32.840Z,97.77
2022-12-18T02:30:32.877Z,97.56
2022-12-18T02:31:32.840Z,97.45
2022-12-18T02:32:32.819Z,97.34
2022-12-18T02:33:32.799Z,97.34
2022-12-18T02:34:32.789Z,97.24
2022-12-18T02:35:32.779Z,97.13
2022-12-18T02:36:32.796Z,97.03
2022-12-18T02:37:32.760Z,97.07
2022-12-18T02:38:32.762Z,97.03
2022-12-18T02:39:32.736Z,96.96
2022-12-18T02:40:32.734Z,96.86
2022-12-18T02:41:32.746Z,96.86
2022-12-18T02:42:32.734Z,96.86
2022-12-18T02:43:32.699Z,96.86
2022-12-18T02:44:32.695Z,96.86
2022-12-18T02:45:32.720Z,96.75
2022-12-18T02:46:32.665Z,96.75
2022-12-18T02:47:32.686Z,96.75
2022-12-18T02:48:32.646Z,96.96
2022-12-18T02:49:32.665Z,97.07
2022-12-18T02:50:32.637Z,97.28
2022-12-18T02:51:32.626Z,97.17
2022-12-18T02:52:32.613Z,97.17
2022-12-18T02:53:32.602Z,97.07
2022-12-18T02:54:32.586Z,97.07
2022-12-18T02:55:32.603Z,96.96
2022-12-18T02:56:32.574Z,97.07
2022-12-18T02:57:32.564Z,97.07
2022-12-18T02:58:32.545Z,97.17
2022-12-18T02:59:32.536Z,97.28
2022-12-18T03:00:32.553Z,97.39
2022-12-18T03:01:32.638Z,97.28
2022-12-18T03:02:32.845Z,97.28
2022-12-18T03:03:32.562Z,97.22
2022-12-18T03:04:32.502Z,97.33
2022-12-18T03:05:32.484Z,97.33
2022-12-18T03:06:32.477Z,97.50
2022-12-18T03:07:32.473Z,97.60
2022-12-18T03:08:32.448Z,97.50
2022-12-18T03:09:32.432Z,97.60
2022-12-18T03:10:32.459Z,97.60
2022-12-18T03:11:32.420Z,97.60
2022-12-18T03:12:32.410Z,97.81
2022-12-18T03:13:32.393Z,97.77
2022-12-18T03:14:32.393Z,97.67
2022-12-18T03:15:32.382Z,97.56
2022-12-18T03:16:32.434Z,97.56
2022-12-18T03:17:32.358Z,97.34
2022-12-18T03:18:32.355Z,97.13
2022-12-18T03:19:32.341Z,96.96
2022-12-18T03:20:32.336Z,96.75
2022-12-18T03:21:32.320Z,96.75
2022-12-18T03:22:32.338Z,96.64
2022-12-18T03:23:32.300Z,96.53
2022-12-18T03:24:32.291Z,96.53
2022-12-18T03:25:32.270Z,96.75
2022-12-18T03:26:32.267Z,96.86
2022-12-18T03:27:32.258Z,96.75
2022-12-18T03:28:32.271Z,96.86
2022-12-18T03:29:32.244Z,96.96
2022-12-18T03:30:32.289Z,96.96
2022-12-18T03:31:32.220Z,96.96
2022-12-18T03:32:32.212Z,96.96
2022-12-18T03:33:32.199Z,96.96
2022-12-18T03:34:32.220Z,96.96
2022-12-18T03:35:32.188Z,97.17
2022-12-18T03:36:32.169Z,97.13
2022-12-18T03:37:32.157Z,97.13
2022-12-18T03:38:32.150Z,97.03
2022-12-18T03:39:32.138Z,96.81
2022-12-18T03:40:32.146Z,96.64
2022-12-18T03:41:32.119Z,96.64
2022-12-18T03:42:32.109Z,96.64
2022-12-18T03:43:32.096Z,96.70
2022-12-18T03:44:32.116Z,96.70
2022-12-18T03:45:32.080Z,96.60
2022-12-18T03:46:32.108Z,96.39
2022-12-18T03:47:32.056Z,96.32
2022-12-18T03:48:32.047Z,96.43
2022-12-18T03:49:32.058Z,96.43
2022-12-18T03:50:32.054Z,96.53
2022-12-18T03:51:32.014Z,96.53
2022-12-18T03:52:32.014Z,96.64
2022-12-18T03:53:31.995Z,96.75
2022-12-18T03:54:31.984Z,96.81
2022-12-18T03:55:31.975Z,96.92
2022-12-18T03:56:31.986Z,96.92
2022-12-18T03:57:31.954Z,96.92
2022-12-18T03:58:31.953Z,96.70
2022-12-18T03:59:31.956Z,96.53
2022-12-18T04:00:31.933Z,96.32
2022-12-18T04:01:32.027Z,96.32
2022-12-18T04:02:31.987Z,96.32
2022-12-18T04:03:31.968Z,96.43
2022-12-18T04:04:31.885Z,96.49
2022-12-18T04:05:31.875Z,96.60
2022-12-18T04:06:31.863Z,96.60
2022-12-18T04:07:31.874Z,96.60
2022-12-18T04:08:31.850Z,96.60
2022-12-18T04:09:31.842Z,96.49
2022-12-18T04:10:31.831Z,96.39
2022-12-18T04:11:31.816Z,96.17
2022-12-18T04:12:31.830Z,96.11
2022-12-18T04:13:31.814Z,95.89
2022-12-18T04:14:31.783Z,95.89
2022-12-18T04:15:31.795Z,95.89
2022-12-18T04:16:31.772Z,95.94
2022-12-18T04:17:31.773Z,95.94
2022-12-18T04:18:31.751Z,96.15
2022-12-18T04:19:31.736Z,96.26
2022-12-18T04:20:31.735Z,96.36
2022-12-18T04:21:31.719Z,96.58
2022-12-18T04:22:31.733Z,96.79
2022-12-18T04:23:31.690Z,96.90
2022-12-18T04:24:31.700Z,97.00
2022-12-18T04:25:31.671Z,97.00
2022-12-18T04:26:31.662Z,97.00
2022-12-18T04:27:31.682Z,97.22
2022-12-18T04:28:31.669Z,97.33
2022-12-18T04:29:31.641Z,97.33
2022-12-18T04:30:31.629Z,97.33
2022-12-18T04:31:31.679Z,97.33
2022-12-18T04:32:31.633Z,97.43
2022-12-18T04:33:31.620Z,97.43
2022-12-18T04:34:31.590Z,97.43
2022-12-18T04:35:31.571Z,97.64
2022-12-18T04:36:31.579Z,97.75
2022-12-18T04:37:31.579Z,97.86
2022-12-18T04:38:52.620Z,97.86
2022-12-18T04:39:31.539Z,97.86
2022-12-18T04:40:31.537Z,97.86
2022-12-18T04:41:31.515Z,97.86
2022-12-18T04:42:31.530Z,97.86
2022-12-18T04:43:31.497Z,97.97
2022-12-18T04:44:31.508Z,98.07
2022-12-18T04:45:31.468Z,98.18
2022-12-18T04:46:31.543Z,98.29
2022-12-18T04:47:31.448Z,98.39
2022-12-18T04:48:31.467Z,98.50
2022-12-18T04:49:31.441Z,98.61
2022-12-18T04:50:31.424Z,98.61
2022-12-18T04:51:31.420Z,98.72
2022-12-18T04:52:31.406Z,98.78
2022-12-18T04:53:31.435Z,98.78
2022-12-18T04:54:31.387Z,98.78
2022-12-18T04:55:31.376Z,98.88
2022-12-18T04:56:31.367Z,98.88
2022-12-18T04:57:31.357Z,98.99
2022-12-18T04:58:31.345Z,99.10
2022-12-18T04:59:31.363Z,99.21
2022-12-18T05:00:31.333Z,99.10
2022-12-18T05:01:34.776Z,99.21
2022-12-18T05:02:31.423Z,99.21
2022-12-18T05:03:31.362Z,99.10
2022-12-18T05:04:31.324Z,98.88
2022-12-18T05:05:31.273Z,98.88
2022-12-18T05:06:31.272Z,98.88
2022-12-18T05:07:31.253Z,98.88
2022-12-18T05:08:31.243Z,98.88
2022-12-18T05:09:31.234Z,98.88
2022-12-18T05:10:37.581Z,98.88
2022-12-18T05:11:32.222Z,98.99
2022-12-18T05:12:31.209Z,98.99
2022-12-18T05:13:31.195Z,98.95
2022-12-18T05:14:31.184Z,98.95
2022-12-18T05:15:31.205Z,98.84
2022-12-18T05:16:31.246Z,98.63
2022-12-18T05:17:31.154Z,98.52
2022-12-18T05:18:31.150Z,98.63
2022-12-18T05:19:31.133Z,98.52
2022-12-18T05:20:31.150Z,98.63
2022-12-18T05:21:31.122Z,98.48
2022-12-18T05:22:31.112Z,98.37
2022-12-18T05:23:31.092Z,98.16
2022-12-18T05:24:31.100Z,98.16
2022-12-18T05:25:31.073Z,97.94
2022-12-18T05:26:31.099Z,97.88
2022-12-18T05:27:31.051Z,97.67
2022-12-18T05:28:31.045Z,97.45
2022-12-18T05:29:31.031Z,97.45
2022-12-18T05:30:31.021Z,97.45
2022-12-18T05:31:35.976Z,97.34
2022-12-18T05:32:32.002Z,97.45
2022-12-18T05:33:30.989Z,97.56
2022-12-18T05:34:30.989Z,97.60
2022-12-18T05:35:30.979Z,97.71
2022-12-18T05:36:30.992Z,97.71
2022-12-18T05:37:30.950Z,97.92
2022-12-18T05:38:30.953Z,98.14
2022-12-18T05:39:30.933Z,98.35
2022-12-18T05:40:30.918Z,98.41
2022-12-18T05:41:30.935Z,98.57
2022-12-18T05:42:30.900Z,98.67
2022-12-18T05:43:30.888Z,98.74
2022-12-18T05:44:30.909Z,98.95
2022-12-18T05:45:30.868Z,99.05
2022-12-18T05:46:30.911Z,99.16
2022-12-18T05:47:30.878Z,99.27
2022-12-18T05:48:30.839Z,99.38
2022-12-18T05:49:30.830Z,99.48
2022-12-18T05:50:30.818Z,99.59
2022-12-18T05:51:30.817Z,99.59
2022-12-18T05:52:30.807Z,99.80
2022-12-18T05:53:30.817Z,99.98
2022-12-18T05:54:30.786Z,99.99
2022-12-18T05:55:30.769Z,99.99
2022-12-18T05:56:30.757Z,99.99
2022-12-18T05:57:30.757Z,99.99
2022-12-18T05:58:30.764Z,99.99
2022-12-18T05:59:30.738Z,99.99
2022-12-18T06:00:30.724Z,99.99
2022-12-18T06:01:30.750Z,99.99
2022-12-18T06:02:30.725Z,99.99
2022-12-18T06:03:33.918Z,99.87
2022-12-18T06:04:30.714Z,99.87
2022-12-18T06:05:30.677Z,99.98
2022-12-18T06:06:30.656Z,99.98
2022-12-18T06:07:30.656Z,99.99
2022-12-18T06:08:30.646Z,99.99
2022-12-18T06:09:30.634Z,99.99
2022-12-18T06:10:30.646Z,99.99
2022-12-18T06:11:30.615Z,99.99
2022-12-18T06:12:30.606Z,99.99
2022-12-18T06:13:30.585Z,99.99
2022-12-18T06:14:30.601Z,99.99
2022-12-18T06:15:30.565Z,99.99
2022-12-18T06:16:30.596Z,99.99
2022-12-18T06:17:30.556Z,99.99
2022-12-18T06:18:30.535Z,99.99
2022-12-18T06:19:30.555Z,99.99
2022-12-18T06:20:33.422Z,99.98
2022-12-18T06:21:30.514Z,99.98
2022-12-18T06:22:30.502Z,99.87
2022-12-18T06:23:30.484Z,99.87
2022-12-18T06:24:30.492Z,99.76
2022-12-18T06:25:30.498Z,99.65
2022-12-18T06:26:30.463Z,99.55
2022-12-18T06:27:30.454Z,99.55
2022-12-18T06:28:30.443Z,99.44
2022-12-18T06:29:30.462Z,99.44
2022-12-18T06:30:30.449Z,99.44
2022-12-18T06:31:30.432Z,99.33
2022-12-18T06:32:30.403Z,99.33
2022-12-18T06:33:30.396Z,99.44
2022-12-18T06:34:30.380Z,99.44
2022-12-18T06:35:30.391Z,99.33
2022-12-18T06:36:30.372Z,99.33
2022-12-18T06:37:30.353Z,99.33
2022-12-18T06:38:30.341Z,99.33
2022-12-18T06:39:30.339Z,99.12
2022-12-18T06:40:30.343Z,99.01
2022-12-18T06:41:30.310Z,99.01
2022-12-18T06:42:30.300Z,99.01
2022-12-18T06:43:30.290Z,99.12
2022-12-18T06:44:30.279Z,99.01
2022-12-18T06:45:30.314Z,99.12
2022-12-18T06:46:30.254Z,99.01
2022-12-18T06:47:30.250Z,99.01
2022-12-18T06:48:30.240Z,99.12
2022-12-18T06:49:30.739Z,99.22
2022-12-18T06:50:30.250Z,99.33
2022-12-18T06:51:30.209Z,99.33
2022-12-18T06:52:30.199Z,99.33
2022-12-18T06:53:30.189Z,99.40
2022-12-18T06:54:30.179Z,99.61
2022-12-18T06:55:30.188Z,99.82
2022-12-18T06:56:30.158Z,99.93
2022-12-18T06:57:30.148Z,99.99
2022-12-18T06:58:30.137Z,99.99
2022-12-18T06:59:30.136Z,99.99
2022-12-18T07:00:30.222Z,99.99
2022-12-18T07:01:30.207Z,99.99
2022-12-18T07:02:30.220Z,99.99
2022-12-18T07:03:30.089Z,99.99
2022-12-18T07:04:30.076Z,99.99
2022-12-18T07:05:30.066Z,99.99
2022-12-18T07:06:30.057Z,99.99
2022-12-18T07:07:30.076Z,99.99
2022-12-18T07:08:30.046Z,99.99
2022-12-18T07:09:30.038Z,99.99
2022-12-18T07:10:30.073Z,99.99
2022-12-18T07:11:30.020Z,99.99
2022-12-18T07:12:29.995Z,99.99
2022-12-18T07:13:30.015Z,99.99
2022-12-18T07:14:29.976Z,99.99
2022-12-18T07:15:29.975Z,99.99
2022-12-18T07:16:30.029Z,99.99
2022-12-18T07:17:29.946Z,99.99
2022-12-18T07:18:29.933Z,99.99
2022-12-18T07:19:29.924Z,99.99
2022-12-18T07:20:29.975Z,99.99
2022-12-18T07:21:29.916Z,99.99
2022-12-18T07:22:29.923Z,99.99
2022-12-18T07:23:29.885Z,99.99
2022-12-18T07:24:29.876Z,99.99
2022-12-18T07:25:29.863Z,99.99
2022-12-18T07:26:29.855Z,99.99
2022-12-18T07:27:29.862Z,99.99
2022-12-18T07:28:29.835Z,99.99
2022-12-18T07:29:29.824Z,99.99
2022-12-18T07:30:29.915Z,99.99
2022-12-18T07:31:29.859Z,99.99
2022-12-18T07:32:29.815Z,99.99
2022-12-18T07:33:29.792Z,99.99
2022-12-18T07:34:29.773Z,99.99
2022-12-18T07:35:29.768Z,99.99
2022-12-18T07:36:29.753Z,99.99
2022-12-18T07:37:29.771Z,99.99
2022-12-18T07:38:29.731Z,99.99
2022-12-18T07:39:29.723Z,99.99
2022-12-18T07:40:29.804Z,99.99
2022-12-18T07:41:29.761Z,99.99
2022-12-18T07:42:29.698Z,99.99
2022-12-18T07:43:29.703Z,99.99
2022-12-18T07:44:29.671Z,99.99
2022-12-18T07:45:29.712Z,99.99
2022-12-18T07:46:29.651Z,99.99
2022-12-18T07:47:29.670Z,99.99
2022-12-18T07:48:29.633Z,99.99
2022-12-18T07:49:29.621Z,99.99
2022-12-18T07:50:29.616Z,99.99
2022-12-18T07:51:29.601Z,99.99
2022-12-18T07:52:29.611Z,99.99
2022-12-18T07:53:29.620Z,99.99
2022-12-18T07:54:29.570Z,99.99
2022-12-18T07:55:35.348Z,99.99
2022-12-18T07:56:31.563Z,99.99
2022-12-18T07:58:30.560Z,99.99
2022-12-18T07:59:29.519Z,99.99
2022-12-18T08:00:29.518Z,99.99
2022-12-18T08:01:29.671Z,99.99
2022-12-18T08:02:29.571Z,99.99
2022-12-18T08:03:29.488Z,99.99
2022-12-18T08:04:29.488Z,99.99
2022-12-18T08:05:29.460Z,99.99
2022-12-18T08:06:29.449Z,99.99
2022-12-18T08:07:29.437Z,99.99
2022-12-18T08:08:29.431Z,99.99
2022-12-18T08:09:29.419Z,99.99
2022-12-18T08:10:29.435Z,99.99
2022-12-18T08:11:29.398Z,99.99
2022-12-18T08:12:29.387Z,99.99
2022-12-18T08:13:29.385Z,99.99
2022-12-18T08:14:29.367Z,99.99
2022-12-18T08:15:29.377Z,99.99
2022-12-18T08:16:29.415Z,99.99
2022-12-18T08:17:29.337Z,99.99
2022-12-18T08:18:29.327Z,99.99
2022-12-18T08:19:29.314Z,99.99
2022-12-18T08:20:29.337Z,99.99
2022-12-18T08:21:29.307Z,99.99
2022-12-18T08:22:29.294Z,99.99
2022-12-18T08:23:29.286Z,99.99
2022-12-18T08:24:29.271Z,99.99
2022-12-18T08:25:29.253Z,99.99
2022-12-18T08:26:29.267Z,99.99
2022-12-18T08:27:34.008Z,99.94
2022-12-18T08:28:30.223Z,99.73
2022-12-18T08:29:29.215Z,99.73
2022-12-18T08:30:29.258Z,99.52
2022-12-18T08:31:29.267Z,99.52
2022-12-18T08:32:29.216Z,99.41
2022-12-18T08:33:29.175Z,99.37
2022-12-18T08:34:29.165Z,99.15
2022-12-18T08:35:34.245Z,99.15
2022-12-18T08:36:30.169Z,99.05
2022-12-18T08:37:29.132Z,99.05
2022-12-18T08:38:29.129Z,99.05
2022-12-18T08:39:29.107Z,98.94
2022-12-18T08:40:29.095Z,98.94
2022-12-18T08:41:29.133Z,98.79
2022-12-18T08:42:29.186Z,98.79
2022-12-18T08:43:29.075Z,98.79
2022-12-18T08:44:29.055Z,98.79
2022-12-18T08:45:29.055Z,98.74
2022-12-18T08:46:29.135Z,98.74
2022-12-18T08:47:29.065Z,98.85
2022-12-18T08:48:29.041Z,98.70
2022-12-18T08:49:29.006Z,98.81
2022-12-18T08:50:29.008Z,98.66
2022-12-18T08:51:29.013Z,98.44
2022-12-18T08:52:28.972Z,98.24
2022-12-18T08:53:34.045Z,98.13
2022-12-18T08:54:29.962Z,97.98
2022-12-18T08:55:28.963Z,97.87
2022-12-18T08:56:28.943Z,97.87
2022-12-18T08:57:28.953Z,97.72
2022-12-18T08:58:28.916Z,97.61
2022-12-18T08:59:28.923Z,97.61
2022-12-18T09:00:28.902Z,97.51
2022-12-18T09:01:28.971Z,97.36
2022-12-18T09:02:29.095Z,97.36
2022-12-18T09:03:29.028Z,97.25
2022-12-18T09:04:28.870Z,97.00
2022-12-18T09:05:28.863Z,96.89
2022-12-18T09:06:28.835Z,96.89
2022-12-18T09:07:28.834Z,96.79
2022-12-18T09:08:28.834Z,96.85
2022-12-18T09:09:28.823Z,96.70
2022-12-18T09:10:28.818Z,96.49
2022-12-18T09:11:28.788Z,96.39
2022-12-18T09:12:28.770Z,96.28
2022-12-18T09:13:28.782Z,96.17
2022-12-18T09:14:28.750Z,96.17
2022-12-18T09:15:28.750Z,96.17
2022-12-18T09:16:32.035Z,96.17
2022-12-18T09:17:28.740Z,96.07
2022-12-18T09:18:28.737Z,96.07
2022-12-18T09:19:28.709Z,96.23
2022-12-18T09:20:28.689Z,96.30
2022-12-18T09:21:28.676Z,96.21
2022-12-18T09:22:28.691Z,95.53
2022-12-18T09:23:28.667Z,94.76
2022-12-18T09:24:28.648Z,93.83
2022-12-18T09:25:28.648Z,92.94
2022-12-18T09:26:28.645Z,91.53
2022-12-18T09:27:28.652Z,90.76
2022-12-18T09:28:28.599Z,90.05
2022-12-18T09:29:28.620Z,88.96
2022-12-18T09:30:28.677Z,87.97
2022-12-18T09:31:28.580Z,86.99
2022-12-18T09:32:28.567Z,86.43
2022-12-18T09:33:28.913Z,85.24
2022-12-18T09:34:28.600Z,84.25
2022-12-18T09:35:28.540Z,83.62
2022-12-18T09:36:28.525Z,83.62
2022-12-18T09:37:28.516Z,83.62
2022-12-18T09:38:28.518Z,83.52
2022-12-18T09:39:28.498Z,83.66
2022-12-18T09:40:28.517Z,83.70
2022-12-18T09:41:28.491Z,84.01
2022-12-18T09:42:28.466Z,84.16
2022-12-18T09:43:28.456Z,84.37
2022-12-18T09:44:28.516Z,84.93
2022-12-18T09:45:28.476Z,85.63
2022-12-18T09:46:28.487Z,85.90
2022-12-18T09:47:28.435Z,85.55
2022-12-18T09:48:28.405Z,84.88
2022-12-18T09:49:28.405Z,83.94
2022-12-18T09:50:28.395Z,83.45
2022-12-18T09:51:28.365Z,84.01
2022-12-18T09:52:28.355Z,84.79
2022-12-18T09:53:28.369Z,85.46
2022-12-18T09:54:28.346Z,86.23
2022-12-18T09:55:33.597Z,87.21
2022-12-18T09:56:29.347Z,88.09
2022-12-18T09:57:28.330Z,88.72
2022-12-18T09:58:28.312Z,89.35
2022-12-18T09:59:28.293Z,89.81
2022-12-18T10:00:28.274Z,90.23
2022-12-18T10:01:36.292Z,90.86
2022-12-18T10:02:29.360Z,91.18
2022-12-18T10:03:28.245Z,91.53
2022-12-18T10:04:28.285Z,92.02
2022-12-18T10:05:28.226Z,92.23
2022-12-18T10:06:28.267Z,92.33
2022-12-18T10:07:28.239Z,92.44
2022-12-18T10:08:28.195Z,92.54
2022-12-18T10:09:28.177Z,92.65
2022-12-18T10:10:28.183Z,92.82
2022-12-18T10:11:28.168Z,92.92
2022-12-18T10:12:28.167Z,92.82
2022-12-18T10:13:28.168Z,92.92
2022-12-18T10:14:28.125Z,92.88
2022-12-18T10:15:28.161Z,92.77
2022-12-18T10:16:28.170Z,92.57
2022-12-18T10:17:28.095Z,92.32
2022-12-18T10:18:28.113Z,92.10
2022-12-18T10:19:28.075Z,91.96
2022-12-18T10:20:28.062Z,91.75
2022-12-18T10:21:28.055Z,91.53
2022-12-18T10:22:28.046Z,91.22
2022-12-18T10:23:28.065Z,91.18
2022-12-18T10:24:28.025Z,91.08
2022-12-18T10:25:28.017Z,90.97
2022-12-18T10:26:28.003Z,90.72
2022-12-18T10:27:27.993Z,90.36
2022-12-18T10:28:28.030Z,89.84
2022-12-18T10:29:27.974Z,89.22
2022-12-18T10:30:27.973Z,89.00
2022-12-18T10:31:28.028Z,88.69
2022-12-18T10:32:28.034Z,88.79
2022-12-18T10:33:28.064Z,88.59
2022-12-18T10:34:27.941Z,88.48
2022-12-18T10:35:27.946Z,88.37
2022-12-18T10:36:27.922Z,88.37
2022-12-18T10:37:27.893Z,88.48
2022-12-18T10:38:27.903Z,88.48
2022-12-18T10:39:27.871Z,88.59
2022-12-18T10:40:27.862Z,88.65
2022-12-18T10:41:27.910Z,88.65
2022-12-18T10:42:27.843Z,88.65
2022-12-18T10:43:27.833Z,88.50
2022-12-18T10:44:27.913Z,88.29
2022-12-18T10:45:27.833Z,88.09
2022-12-18T10:46:27.847Z,88.19
2022-12-18T10:47:27.792Z,88.40
2022-12-18T10:48:27.782Z,88.19
2022-12-18T10:49:27.762Z,88.04
2022-12-18T10:50:46.843Z,87.73
2022-12-18T10:51:31.378Z,87.73
2022-12-18T10:52:27.741Z,87.52
2022-12-18T10:53:27.762Z,87.42
2022-12-18T10:54:27.711Z,87.31
2022-12-18T10:55:27.771Z,87.27
2022-12-18T10:56:27.683Z,87.07
2022-12-18T10:57:27.693Z,86.96
2022-12-18T10:58:27.670Z,86.75
2022-12-18T10:59:27.660Z,86.54
2022-12-18T11:00:27.648Z,86.65
2022-12-18T11:01:27.757Z,87.07
2022-12-18T11:02:27.785Z,87.27
2022-12-18T11:03:27.707Z,87.48
2022-12-18T11:04:27.600Z,87.27
2022-12-18T11:05:27.598Z,87.17
2022-12-18T11:06:27.602Z,87.07
2022-12-18T11:07:27.598Z,87.07
2022-12-18T11:08:27.562Z,87.23
2022-12-18T11:09:27.540Z,87.23
2022-12-18T11:10:27.541Z,86.92
2022-12-18T11:11:27.542Z,86.99
2022-12-18T11:12:27.520Z,86.88
2022-12-18T11:13:27.572Z,86.67
2022-12-18T11:14:27.502Z,86.57
2022-12-18T11:15:27.482Z,86.32
2022-12-18T11:16:27.502Z,85.86
2022-12-18T11:17:27.481Z,85.65
2022-12-18T11:18:27.472Z,85.34
2022-12-18T11:19:27.874Z,85.03
2022-12-18T11:20:27.431Z,85.13
2022-12-18T11:21:27.420Z,85.10
2022-12-18T11:22:27.529Z,85.03
2022-12-18T11:23:27.412Z,85.10
2022-12-18T11:24:27.390Z,85.34
2022-12-18T11:25:33.523Z,85.24
2022-12-18T11:26:28.359Z,84.99
2022-12-18T11:27:27.350Z,84.88
2022-12-18T11:28:27.370Z,84.99
2022-12-18T11:29:27.354Z,85.20
2022-12-18T11:30:27.320Z,84.99
2022-12-18T11:31:27.360Z,84.88
2022-12-18T11:32:27.320Z,84.92
2022-12-18T11:33:27.299Z,85.24
2022-12-18T11:34:29.743Z,85.80
2022-12-18T11:35:27.289Z,86.07
2022-12-18T11:36:27.261Z,86.11
2022-12-18T11:37:27.250Z,86.21
2022-12-18T11:38:27.238Z,86.36
2022-12-18T11:39:27.252Z,87.09
2022-12-18T11:40:27.247Z,87.19
2022-12-18T11:41:27.230Z,87.19
2022-12-18T11:42:27.199Z,87.19
2022-12-18T11:43:27.199Z,87.30
2022-12-18T11:44:27.180Z,87.30
2022-12-18T11:45:27.166Z,87.30
2022-12-18T11:46:27.182Z,87.61
2022-12-18T11:47:27.162Z,87.82
2022-12-18T11:48:27.141Z,88.13
2022-12-18T11:49:27.120Z,88.24
2022-12-18T11:50:27.138Z,88.24
2022-12-18T11:51:27.443Z,88.45
2022-12-18T11:52:27.097Z,88.45
2022-12-18T11:53:27.108Z,88.59
2022-12-18T11:54:27.084Z,88.70
2022-12-18T11:55:27.089Z,89.01
2022-12-18T11:56:27.072Z,89.22
2022-12-18T11:57:27.039Z,89.43
2022-12-18T11:58:31.384Z,89.43
2022-12-18T11:59:27.019Z,89.58
2022-12-18T12:00:27.005Z,89.68
2022-12-18T12:01:27.063Z,89.68
2022-12-18T12:02:27.208Z,89.78
2022-12-18T12:03:26.988Z,89.78
2022-12-18T12:04:27.032Z,89.89
2022-12-18T12:05:26.949Z,89.89
2022-12-18T12:06:26.971Z,90.09
2022-12-18T12:07:26.930Z,90.31
2022-12-18T12:08:26.920Z,90.41
2022-12-18T12:09:26.913Z,90.72
2022-12-18T12:10:26.908Z,90.72
2022-12-18T12:11:26.888Z,90.83
2022-12-18T12:12:26.912Z,91.18
2022-12-18T12:13:26.882Z,91.14
2022-12-18T12:14:26.871Z,91.39
2022-12-18T12:15:26.848Z,91.71
2022-12-18T12:16:26.905Z,91.77
2022-12-18T12:17:26.848Z,91.77
2022-12-18T12:18:26.818Z,91.77
2022-12-18T12:19:26.800Z,91.77
2022-12-18T12:20:26.800Z,91.66
2022-12-18T12:21:26.785Z,91.66
2022-12-18T12:22:26.800Z,91.77
2022-12-18T12:23:27.968Z,91.87
2022-12-18T12:24:26.749Z,91.98
2022-12-18T12:25:26.750Z,91.98
2022-12-18T12:26:26.732Z,91.77
2022-12-18T12:27:26.758Z,91.66
2022-12-18T12:28:26.717Z,91.56
2022-12-18T12:29:26.697Z,91.56
2022-12-18T12:30:26.688Z,91.46
2022-12-18T12:31:26.752Z,91.46
2022-12-18T12:32:26.689Z,91.56
2022-12-18T12:33:26.689Z,91.46
2022-12-18T12:34:26.660Z,91.46
2022-12-18T12:35:26.637Z,91.46
2022-12-18T12:36:26.628Z,91.66
2022-12-18T12:37:26.639Z,91.87
2022-12-18T12:38:26.607Z,91.98
2022-12-18T12:39:26.619Z,91.87
2022-12-18T12:40:52.077Z,91.87
2022-12-18T12:41:27.571Z,92.08
2022-12-18T12:42:26.570Z,91.98
2022-12-18T12:43:26.558Z,92.54
2022-12-18T12:44:26.538Z,92.85
2022-12-18T12:45:26.619Z,93.11
2022-12-18T12:46:26.527Z,93.32
2022-12-18T12:47:26.506Z,93.52
2022-12-18T12:48:26.518Z,93.52
2022-12-18T12:49:26.552Z,93.52
2022-12-18T12:50:26.476Z,93.63
2022-12-18T12:51:26.466Z,93.63
2022-12-18T12:52:26.459Z,93.63
2022-12-18T12:53:26.459Z,93.59